sensor_id;sensor_type;location;lat;lon;timestamp;P1;durP1;ratioP1;P2;durP2;ratioP2
21438;SDS011;10880;50.302;18.736;2023-06-14T00:01:57;2.23;;;2.03;;
21438;SDS011;10880;50.302;18.736;2023-06-14T00:04:24;2.20;;;2.00;;
21438;SDS011;10880;50.302;18.736;2023-06-14T00:06:52;2.93;;;2.40;;
21438;SDS011;10880;50.302;18.736;2023-06-14T00:09:19;2.40;;;2.20;;
21438;SDS011;10880;50.302;18.736;2023-06-14T00:11:46;3.17;;;2.20;;
21438;SDS011;10880;50.302;18.736;2023-06-14T00:14:12;2.47;;;2.23;;
21438;SDS011;10880;50.302;18.736;2023-06-14T00:16:39;2.40;;;2.20;;
21438;SDS011;10880;50.302;18.736;2023-06-14T00:19:08;2.50;;;2.30;;
21438;SDS011;10880;50.302;18.736;2023-06-14T00:21:38;2.40;;;2.20;;
21438;SDS011;10880;50.302;18.736;2023-06-14T00:24:05;3.37;;;2.40;;
21438;SDS011;10880;50.302;18.736;2023-06-14T00:26:32;2.37;;;2.17;;
21438;SDS011;10880;50.302;18.736;2023-06-14T00:29:03;2.60;;;2.40;;
21438;SDS011;10880;50.302;18.736;2023-06-14T00:31:30;2.03;;;1.83;;
21438;SDS011;10880;50.302;18.736;2023-06-14T00:33:57;2.40;;;2.20;;
21438;SDS011;10880;50.302;18.736;2023-06-14T00:36:23;2.30;;;2.10;;
21438;SDS011;10880;50.302;18.736;2023-06-14T00:38:50;2.17;;;2.00;;
21438;SDS011;10880;50.302;18.736;2023-06-14T00:41:17;2.20;;;2.00;;
21438;SDS011;10880;50.302;18.736;2023-06-14T00:43:44;2.20;;;2.00;;
21438;SDS011;10880;50.302;18.736;2023-06-14T00:46:11;2.50;;;2.30;;
21438;SDS011;10880;50.302;18.736;2023-06-14T00:48:38;3.40;;;2.40;;
21438;SDS011;10880;50.302;18.736;2023-06-14T00:51:06;2.30;;;2.13;;
21438;SDS011;10880;50.302;18.736;2023-06-14T00:53:32;2.40;;;2.20;;
21438;SDS011;10880;50.302;18.736;2023-06-14T00:56:01;2.40;;;2.20;;
21438;SDS011;10880;50.302;18.736;2023-06-14T00:58:28;2.40;;;2.20;;
21438;SDS011;10880;50.302;18.736;2023-06-14T01:00:55;2.63;;;2.23;;
21438;SDS011;10880;50.302;18.736;2023-06-14T01:03:23;2.50;;;2.30;;
21438;SDS011;10880;50.302;18.736;2023-06-14T01:05:53;2.97;;;2.40;;
21438;SDS011;10880;50.302;18.736;2023-06-14T01:08:31;2.50;;;2.30;;
21438;SDS011;10880;50.302;18.736;2023-06-14T01:11:16;2.73;;;2.30;;
21438;SDS011;10880;50.302;18.736;2023-06-14T01:13:48;2.80;;;2.50;;
21438;SDS011;10880;50.302;18.736;2023-06-14T01:16:17;2.40;;;2.20;;
21438;SDS011;10880;50.302;18.736;2023-06-14T01:18:44;3.13;;;2.50;;
21438;SDS011;10880;50.302;18.736;2023-06-14T01:21:21;2.33;;;2.13;;
21438;SDS011;10880;50.302;18.736;2023-06-14T01:23:50;2.60;;;2.40;;
21438;SDS011;10880;50.302;18.736;2023-06-14T01:26:19;2.50;;;2.30;;
21438;SDS011;10880;50.302;18.736;2023-06-14T01:28:51;2.43;;;2.23;;
21438;SDS011;10880;50.302;18.736;2023-06-14T01:31:25;2.57;;;2.37;;
21438;SDS011;10880;50.302;18.736;2023-06-14T01:33:53;2.30;;;2.10;;
21438;SDS011;10880;50.302;18.736;2023-06-14T01:36:20;2.60;;;2.40;;
21438;SDS011;10880;50.302;18.736;2023-06-14T01:38:48;3.10;;;2.23;;
21438;SDS011;10880;50.302;18.736;2023-06-14T01:41:16;2.70;;;2.37;;
21438;SDS011;10880;50.302;18.736;2023-06-14T01:43:44;2.20;;;2.00;;
21438;SDS011;10880;50.302;18.736;2023-06-14T01:46:11;2.30;;;2.10;;
21438;SDS011;10880;50.302;18.736;2023-06-14T01:48:40;3.90;;;2.13;;
21438;SDS011;10880;50.302;18.736;2023-06-14T01:51:07;2.70;;;2.23;;
21438;SDS011;10880;50.302;18.736;2023-06-14T01:53:33;2.63;;;2.17;;
21438;SDS011;10880;50.302;18.736;2023-06-14T01:56:00;2.53;;;2.23;;
21438;SDS011;10880;50.302;18.736;2023-06-14T01:58:30;3.10;;;2.47;;
21438;SDS011;10880;50.302;18.736;2023-06-14T02:00:58;2.50;;;2.30;;
21438;SDS011;10880;50.302;18.736;2023-06-14T02:03:27;2.27;;;2.07;;
21438;SDS011;10880;50.302;18.736;2023-06-14T02:05:54;2.40;;;2.20;;
21438;SDS011;10880;50.302;18.736;2023-06-14T02:08:21;2.40;;;2.20;;
21438;SDS011;10880;50.302;18.736;2023-06-14T02:10:48;2.87;;;2.40;;
21438;SDS011;10880;50.302;18.736;2023-06-14T02:13:15;2.30;;;2.10;;
21438;SDS011;10880;50.302;18.736;2023-06-14T02:15:42;2.50;;;2.30;;
21438;SDS011;10880;50.302;18.736;2023-06-14T02:18:09;2.23;;;2.03;;
21438;SDS011;10880;50.302;18.736;2023-06-14T02:20:36;2.50;;;2.30;;
21438;SDS011;10880;50.302;18.736;2023-06-14T02:23:03;2.50;;;2.30;;
21438;SDS011;10880;50.302;18.736;2023-06-14T02:25:31;2.50;;;2.30;;
21438;SDS011;10880;50.302;18.736;2023-06-14T02:27:58;2.50;;;2.20;;
21438;SDS011;10880;50.302;18.736;2023-06-14T02:30:24;2.40;;;2.20;;
21438;SDS011;10880;50.302;18.736;2023-06-14T02:32:51;2.40;;;2.03;;
21438;SDS011;10880;50.302;18.736;2023-06-14T02:35:18;2.30;;;2.10;;
21438;SDS011;10880;50.302;18.736;2023-06-14T02:37:46;2.00;;;1.90;;
21438;SDS011;10880;50.302;18.736;2023-06-14T02:40:13;2.40;;;2.20;;
21438;SDS011;10880;50.302;18.736;2023-06-14T02:42:40;2.10;;;2.00;;
21438;SDS011;10880;50.302;18.736;2023-06-14T02:45:07;2.30;;;2.10;;
21438;SDS011;10880;50.302;18.736;2023-06-14T02:47:33;2.30;;;2.10;;
21438;SDS011;10880;50.302;18.736;2023-06-14T02:50:00;2.40;;;2.20;;
21438;SDS011;10880;50.302;18.736;2023-06-14T02:52:28;2.30;;;2.10;;
21438;SDS011;10880;50.302;18.736;2023-06-14T02:54:54;2.30;;;2.10;;
21438;SDS011;10880;50.302;18.736;2023-06-14T02:57:21;1.80;;;1.70;;
21438;SDS011;10880;50.302;18.736;2023-06-14T02:59:49;1.93;;;1.83;;
21438;SDS011;10880;50.302;18.736;2023-06-14T03:02:16;2.17;;;1.97;;
21438;SDS011;10880;50.302;18.736;2023-06-14T03:04:43;2.20;;;2.00;;
21438;SDS011;10880;50.302;18.736;2023-06-14T03:07:15;2.10;;;2.00;;
21438;SDS011;10880;50.302;18.736;2023-06-14T03:09:48;2.20;;;2.00;;
21438;SDS011;10880;50.302;18.736;2023-06-14T03:12:15;2.00;;;1.90;;
21438;SDS011;10880;50.302;18.736;2023-06-14T03:14:43;2.63;;;2.10;;
21438;SDS011;10880;50.302;18.736;2023-06-14T03:17:11;2.37;;;2.10;;
21438;SDS011;10880;50.302;18.736;2023-06-14T03:19:39;2.50;;;2.30;;
21438;SDS011;10880;50.302;18.736;2023-06-14T03:22:07;2.00;;;1.90;;
21438;SDS011;10880;50.302;18.736;2023-06-14T03:24:34;2.80;;;2.33;;
21438;SDS011;10880;50.302;18.736;2023-06-14T03:27:07;2.33;;;2.03;;
21438;SDS011;10880;50.302;18.736;2023-06-14T03:29:37;2.33;;;2.13;;
21438;SDS011;10880;50.302;18.736;2023-06-14T03:32:04;2.70;;;2.10;;
21438;SDS011;10880;50.302;18.736;2023-06-14T03:34:39;2.70;;;2.47;;
21438;SDS011;10880;50.302;18.736;2023-06-14T03:37:10;2.30;;;2.10;;
21438;SDS011;10880;50.302;18.736;2023-06-14T03:39:36;2.50;;;1.90;;
21438;SDS011;10880;50.302;18.736;2023-06-14T03:42:03;2.57;;;2.37;;
21438;SDS011;10880;50.302;18.736;2023-06-14T03:44:32;2.20;;;2.00;;
21438;SDS011;10880;50.302;18.736;2023-06-14T03:47:00;2.30;;;2.10;;
21438;SDS011;10880;50.302;18.736;2023-06-14T03:49:28;1.90;;;1.80;;
21438;SDS011;10880;50.302;18.736;2023-06-14T03:51:55;2.10;;;1.90;;
21438;SDS011;10880;50.302;18.736;2023-06-14T03:54:23;2.03;;;1.87;;
21438;SDS011;10880;50.302;18.736;2023-06-14T03:56:52;1.97;;;1.87;;
21438;SDS011;10880;50.302;18.736;2023-06-14T03:59:18;2.10;;;2.00;;
21438;SDS011;10880;50.302;18.736;2023-06-14T04:01:46;2.60;;;2.37;;
21438;SDS011;10880;50.302;18.736;2023-06-14T04:04:15;1.93;;;1.83;;
21438;SDS011;10880;50.302;18.736;2023-06-14T04:06:43;2.27;;;2.07;;
21438;SDS011;10880;50.302;18.736;2023-06-14T04:09:10;2.20;;;2.10;;
21438;SDS011;10880;50.302;18.736;2023-06-14T04:11:37;2.30;;;2.10;;
21438;SDS011;10880;50.302;18.736;2023-06-14T04:14:05;1.93;;;1.83;;
21438;SDS011;10880;50.302;18.736;2023-06-14T04:16:32;2.67;;;2.30;;
21438;SDS011;10880;50.302;18.736;2023-06-14T04:19:00;2.47;;;2.23;;
21438;SDS011;10880;50.302;18.736;2023-06-14T04:21:27;2.57;;;2.37;;
21438;SDS011;10880;50.302;18.736;2023-06-14T04:23:57;2.83;;;2.20;;
21438;SDS011;10880;50.302;18.736;2023-06-14T04:26:29;2.20;;;2.00;;
21438;SDS011;10880;50.302;18.736;2023-06-14T04:28:59;2.10;;;1.90;;
21438;SDS011;10880;50.302;18.736;2023-06-14T04:31:29;2.47;;;2.20;;
21438;SDS011;10880;50.302;18.736;2023-06-14T04:34:00;2.40;;;2.20;;
21438;SDS011;10880;50.302;18.736;2023-06-14T04:36:34;2.37;;;2.17;;
21438;SDS011;10880;50.302;18.736;2023-06-14T04:39:03;2.03;;;1.90;;
21438;SDS011;10880;50.302;18.736;2023-06-14T04:41:30;2.13;;;1.93;;
21438;SDS011;10880;50.302;18.736;2023-06-14T04:43:57;2.00;;;1.90;;
21438;SDS011;10880;50.302;18.736;2023-06-14T04:46:28;2.40;;;2.20;;
21438;SDS011;10880;50.302;18.736;2023-06-14T04:48:57;2.67;;;2.40;;
21438;SDS011;10880;50.302;18.736;2023-06-14T04:51:28;3.10;;;2.40;;
21438;SDS011;10880;50.302;18.736;2023-06-14T04:53:59;3.07;;;2.10;;
21438;SDS011;10880;50.302;18.736;2023-06-14T04:56:27;2.27;;;2.07;;
21438;SDS011;10880;50.302;18.736;2023-06-14T04:58:55;2.70;;;2.20;;
21438;SDS011;10880;50.302;18.736;2023-06-14T05:01:22;2.27;;;2.00;;
21438;SDS011;10880;50.302;18.736;2023-06-14T05:03:50;2.63;;;2.17;;
21438;SDS011;10880;50.302;18.736;2023-06-14T05:06:17;2.63;;;2.43;;
21438;SDS011;10880;50.302;18.736;2023-06-14T05:08:45;2.43;;;2.23;;
21438;SDS011;10880;50.302;18.736;2023-06-14T05:11:12;3.07;;;2.33;;
21438;SDS011;10880;50.302;18.736;2023-06-14T05:13:40;4.50;;;2.30;;
21438;SDS011;10880;50.302;18.736;2023-06-14T05:16:08;3.20;;;2.50;;
21438;SDS011;10880;50.302;18.736;2023-06-14T05:18:36;2.40;;;2.20;;
21438;SDS011;10880;50.302;18.736;2023-06-14T05:21:03;2.50;;;2.30;;
21438;SDS011;10880;50.302;18.736;2023-06-14T05:23:31;2.30;;;2.10;;
21438;SDS011;10880;50.302;18.736;2023-06-14T05:25:58;2.47;;;2.27;;
21438;SDS011;10880;50.302;18.736;2023-06-14T05:28:25;2.53;;;2.30;;
21438;SDS011;10880;50.302;18.736;2023-06-14T05:30:51;3.30;;;2.40;;
21438;SDS011;10880;50.302;18.736;2023-06-14T05:33:18;3.43;;;2.30;;
21438;SDS011;10880;50.302;18.736;2023-06-14T05:35:45;2.40;;;2.20;;
21438;SDS011;10880;50.302;18.736;2023-06-14T05:38:12;2.60;;;2.20;;
21438;SDS011;10880;50.302;18.736;2023-06-14T05:40:39;2.93;;;2.30;;
21438;SDS011;10880;50.302;18.736;2023-06-14T05:43:05;2.87;;;2.30;;
21438;SDS011;10880;50.302;18.736;2023-06-14T05:45:32;2.63;;;2.37;;
21438;SDS011;10880;50.302;18.736;2023-06-14T05:47:59;2.30;;;2.10;;
21438;SDS011;10880;50.302;18.736;2023-06-14T05:50:25;2.63;;;2.43;;
21438;SDS011;10880;50.302;18.736;2023-06-14T05:52:53;3.10;;;2.67;;
21438;SDS011;10880;50.302;18.736;2023-06-14T05:55:19;2.30;;;2.10;;
21438;SDS011;10880;50.302;18.736;2023-06-14T05:57:46;2.77;;;2.20;;
21438;SDS011;10880;50.302;18.736;2023-06-14T06:00:15;3.17;;;2.50;;
21438;SDS011;10880;50.302;18.736;2023-06-14T06:02:47;2.33;;;2.13;;
21438;SDS011;10880;50.302;18.736;2023-06-14T06:05:13;2.93;;;2.30;;
21438;SDS011;10880;50.302;18.736;2023-06-14T06:07:43;2.60;;;2.40;;
21438;SDS011;10880;50.302;18.736;2023-06-14T06:10:11;2.33;;;2.13;;
21438;SDS011;10880;50.302;18.736;2023-06-14T06:12:37;2.80;;;2.60;;
21438;SDS011;10880;50.302;18.736;2023-06-14T06:15:04;2.47;;;2.20;;
21438;SDS011;10880;50.302;18.736;2023-06-14T06:17:32;2.40;;;2.20;;
21438;SDS011;10880;50.302;18.736;2023-06-14T06:19:58;2.30;;;2.17;;
21438;SDS011;10880;50.302;18.736;2023-06-14T06:22:26;2.53;;;2.33;;
21438;SDS011;10880;50.302;18.736;2023-06-14T06:24:57;2.50;;;2.30;;
21438;SDS011;10880;50.302;18.736;2023-06-14T06:27:24;2.30;;;2.10;;
21438;SDS011;10880;50.302;18.736;2023-06-14T06:29:51;2.70;;;2.50;;
21438;SDS011;10880;50.302;18.736;2023-06-14T06:32:18;2.40;;;2.20;;
21438;SDS011;10880;50.302;18.736;2023-06-14T06:34:45;2.83;;;2.40;;
21438;SDS011;10880;50.302;18.736;2023-06-14T06:37:13;2.63;;;2.43;;
21438;SDS011;10880;50.302;18.736;2023-06-14T06:39:39;2.63;;;2.43;;
21438;SDS011;10880;50.302;18.736;2023-06-14T06:42:06;2.30;;;2.10;;
21438;SDS011;10880;50.302;18.736;2023-06-14T06:44:36;2.40;;;2.20;;
21438;SDS011;10880;50.302;18.736;2023-06-14T06:47:03;2.53;;;2.33;;
21438;SDS011;10880;50.302;18.736;2023-06-14T06:49:29;2.40;;;2.20;;
21438;SDS011;10880;50.302;18.736;2023-06-14T06:52:03;2.60;;;2.40;;
21438;SDS011;10880;50.302;18.736;2023-06-14T06:54:30;3.00;;;2.70;;
21438;SDS011;10880;50.302;18.736;2023-06-14T06:56:57;2.30;;;2.10;;
21438;SDS011;10880;50.302;18.736;2023-06-14T06:59:23;2.67;;;2.47;;
21438;SDS011;10880;50.302;18.736;2023-06-14T07:01:50;2.43;;;2.23;;
21438;SDS011;10880;50.302;18.736;2023-06-14T07:04:17;2.20;;;2.00;;
21438;SDS011;10880;50.302;18.736;2023-06-14T07:06:45;2.43;;;2.07;;
21438;SDS011;10880;50.302;18.736;2023-06-14T07:09:13;2.10;;;2.00;;
21438;SDS011;10880;50.302;18.736;2023-06-14T07:11:43;1.97;;;1.87;;
21438;SDS011;10880;50.302;18.736;2023-06-14T07:14:11;2.00;;;1.90;;
21438;SDS011;10880;50.302;18.736;2023-06-14T07:16:38;2.30;;;2.10;;
21438;SDS011;10880;50.302;18.736;2023-06-14T07:19:04;2.23;;;2.07;;
21438;SDS011;10880;50.302;18.736;2023-06-14T07:21:31;2.00;;;1.90;;
21438;SDS011;10880;50.302;18.736;2023-06-14T07:23:58;2.30;;;2.10;;
21438;SDS011;10880;50.302;18.736;2023-06-14T07:26:25;1.90;;;1.80;;
21438;SDS011;10880;50.302;18.736;2023-06-14T07:28:58;2.20;;;2.10;;
21438;SDS011;10880;50.302;18.736;2023-06-14T07:31:24;1.90;;;1.80;;
21438;SDS011;10880;50.302;18.736;2023-06-14T07:33:53;1.90;;;1.80;;
21438;SDS011;10880;50.302;18.736;2023-06-14T07:36:20;2.10;;;1.90;;
21438;SDS011;10880;50.302;18.736;2023-06-14T07:38:49;1.90;;;1.80;;
21438;SDS011;10880;50.302;18.736;2023-06-14T07:41:16;1.87;;;1.77;;
21438;SDS011;10880;50.302;18.736;2023-06-14T07:43:42;2.10;;;2.00;;
21438;SDS011;10880;50.302;18.736;2023-06-14T07:46:09;2.00;;;1.90;;
21438;SDS011;10880;50.302;18.736;2023-06-14T07:48:36;1.90;;;1.80;;
21438;SDS011;10880;50.302;18.736;2023-06-14T07:51:02;1.80;;;1.70;;
21438;SDS011;10880;50.302;18.736;2023-06-14T07:53:29;2.00;;;1.90;;
21438;SDS011;10880;50.302;18.736;2023-06-14T07:55:56;2.10;;;2.00;;
21438;SDS011;10880;50.302;18.736;2023-06-14T07:58:23;2.10;;;2.00;;
21438;SDS011;10880;50.302;18.736;2023-06-14T08:00:50;1.97;;;1.87;;
21438;SDS011;10880;50.302;18.736;2023-06-14T08:03:17;2.10;;;1.90;;
21438;SDS011;10880;50.302;18.736;2023-06-14T08:05:45;2.00;;;1.90;;
21438;SDS011;10880;50.302;18.736;2023-06-14T08:08:12;2.40;;;2.20;;
21438;SDS011;10880;50.302;18.736;2023-06-14T08:10:39;2.87;;;2.60;;
21438;SDS011;10880;50.302;18.736;2023-06-14T08:13:06;2.10;;;2.00;;
21438;SDS011;10880;50.302;18.736;2023-06-14T08:15:38;2.20;;;2.00;;
21438;SDS011;10880;50.302;18.736;2023-06-14T08:18:05;2.30;;;2.10;;
21438;SDS011;10880;50.302;18.736;2023-06-14T08:20:32;1.90;;;1.80;;
21438;SDS011;10880;50.302;18.736;2023-06-14T08:23:02;2.33;;;2.13;;
21438;SDS011;10880;50.302;18.736;2023-06-14T08:25:30;2.10;;;1.90;;
21438;SDS011;10880;50.302;18.736;2023-06-14T08:27:59;2.20;;;2.10;;
21438;SDS011;10880;50.302;18.736;2023-06-14T08:30:27;2.00;;;1.90;;
21438;SDS011;10880;50.302;18.736;2023-06-14T08:32:55;2.17;;;2.00;;
21438;SDS011;10880;50.302;18.736;2023-06-14T08:35:23;1.90;;;1.80;;
21438;SDS011;10880;50.302;18.736;2023-06-14T08:37:51;1.90;;;1.80;;
21438;SDS011;10880;50.302;18.736;2023-06-14T08:40:20;1.80;;;1.70;;
21438;SDS011;10880;50.302;18.736;2023-06-14T08:42:52;1.87;;;1.77;;
21438;SDS011;10880;50.302;18.736;2023-06-14T08:45:22;1.70;;;1.60;;
21438;SDS011;10880;50.302;18.736;2023-06-14T08:47:52;1.80;;;1.70;;
21438;SDS011;10880;50.302;18.736;2023-06-14T08:50:24;1.80;;;1.70;;
21438;SDS011;10880;50.302;18.736;2023-06-14T08:52:58;1.90;;;1.80;;
21438;SDS011;10880;50.302;18.736;2023-06-14T08:55:30;1.70;;;1.60;;
21438;SDS011;10880;50.302;18.736;2023-06-14T08:57:57;1.70;;;1.60;;
21438;SDS011;10880;50.302;18.736;2023-06-14T09:00:24;1.50;;;1.40;;
21438;SDS011;10880;50.302;18.736;2023-06-14T09:02:52;1.40;;;1.30;;
21438;SDS011;10880;50.302;18.736;2023-06-14T09:05:24;1.77;;;1.67;;
21438;SDS011;10880;50.302;18.736;2023-06-14T09:07:53;1.60;;;1.50;;
21438;SDS011;10880;50.302;18.736;2023-06-14T09:10:26;1.70;;;1.60;;
21438;SDS011;10880;50.302;18.736;2023-06-14T09:12:55;1.70;;;1.60;;
21438;SDS011;10880;50.302;18.736;2023-06-14T09:15:22;1.63;;;1.53;;
21438;SDS011;10880;50.302;18.736;2023-06-14T09:17:55;1.67;;;1.57;;
21438;SDS011;10880;50.302;18.736;2023-06-14T09:20:23;1.67;;;1.57;;
21438;SDS011;10880;50.302;18.736;2023-06-14T09:22:53;1.50;;;1.40;;
21438;SDS011;10880;50.302;18.736;2023-06-14T09:25:19;1.50;;;1.40;;
21438;SDS011;10880;50.302;18.736;2023-06-14T09:27:46;1.60;;;1.50;;
21438;SDS011;10880;50.302;18.736;2023-06-14T09:30:14;1.40;;;1.30;;
21438;SDS011;10880;50.302;18.736;2023-06-14T09:32:41;1.50;;;1.40;;
21438;SDS011;10880;50.302;18.736;2023-06-14T09:35:08;1.33;;;1.33;;
21438;SDS011;10880;50.302;18.736;2023-06-14T09:37:35;1.77;;;1.67;;
21438;SDS011;10880;50.302;18.736;2023-06-14T09:40:04;1.50;;;1.40;;
21438;SDS011;10880;50.302;18.736;2023-06-14T09:42:32;1.67;;;1.57;;
21438;SDS011;10880;50.302;18.736;2023-06-14T09:45:01;2.03;;;1.90;;
21438;SDS011;10880;50.302;18.736;2023-06-14T09:47:28;3.00;;;2.20;;
21438;SDS011;10880;50.302;18.736;2023-06-14T09:49:55;2.93;;;2.37;;
21438;SDS011;10880;50.302;18.736;2023-06-14T09:52:22;2.37;;;2.10;;
21438;SDS011;10880;50.302;18.736;2023-06-14T09:54:49;1.90;;;1.80;;
21438;SDS011;10880;50.302;18.736;2023-06-14T09:57:20;1.80;;;1.70;;
21438;SDS011;10880;50.302;18.736;2023-06-14T09:59:48;1.60;;;1.50;;
21438;SDS011;10880;50.302;18.736;2023-06-14T10:04:49;1.90;;;1.80;;
21438;SDS011;10880;50.302;18.736;2023-06-14T10:07:23;1.60;;;1.50;;
21438;SDS011;10880;50.302;18.736;2023-06-14T10:09:52;1.60;;;1.50;;
21438;SDS011;10880;50.302;18.736;2023-06-14T10:12:19;1.80;;;1.70;;
21438;SDS011;10880;50.302;18.736;2023-06-14T10:14:48;1.60;;;1.50;;
21438;SDS011;10880;50.302;18.736;2023-06-14T10:19:50;1.77;;;1.67;;
21438;SDS011;10880;50.302;18.736;2023-06-14T10:22:33;1.77;;;1.67;;
21438;SDS011;10880;50.302;18.736;2023-06-14T10:25:02;1.70;;;1.60;;
21438;SDS011;10880;50.302;18.736;2023-06-14T10:27:37;1.70;;;1.60;;
21438;SDS011;10880;50.302;18.736;2023-06-14T10:30:06;1.90;;;1.53;;
21438;SDS011;10880;50.302;18.736;2023-06-14T10:32:33;1.90;;;1.80;;
21438;SDS011;10880;50.302;18.736;2023-06-14T10:37:29;1.43;;;1.33;;
21438;SDS011;10880;50.302;18.736;2023-06-14T10:46:52;1.70;;;1.60;;
21438;SDS011;10880;50.302;18.736;2023-06-14T10:49:21;1.93;;;1.83;;
21438;SDS011;10880;50.302;18.736;2023-06-14T10:52:07;1.90;;;1.80;;
21438;SDS011;10880;50.302;18.736;2023-06-14T10:54:38;2.20;;;2.00;;
21438;SDS011;10880;50.302;18.736;2023-06-14T10:57:28;1.93;;;1.83;;
21438;SDS011;10880;50.302;18.736;2023-06-14T11:00:00;1.70;;;1.60;;
21438;SDS011;10880;50.302;18.736;2023-06-14T11:03:20;1.90;;;1.80;;
21438;SDS011;10880;50.302;18.736;2023-06-14T11:05:56;2.90;;;1.87;;
21438;SDS011;10880;50.302;18.736;2023-06-14T11:11:12;1.87;;;1.77;;
21438;SDS011;10880;50.302;18.736;2023-06-14T11:13:42;2.20;;;2.00;;
21438;SDS011;10880;50.302;18.736;2023-06-14T11:16:13;1.90;;;1.80;;
21438;SDS011;10880;50.302;18.736;2023-06-14T11:18:40;1.73;;;1.63;;
21438;SDS011;10880;50.302;18.736;2023-06-14T11:21:09;1.80;;;1.70;;
21438;SDS011;10880;50.302;18.736;2023-06-14T11:23:38;1.80;;;1.70;;
21438;SDS011;10880;50.302;18.736;2023-06-14T11:26:05;1.90;;;1.70;;
21438;SDS011;10880;50.302;18.736;2023-06-14T11:28:38;2.00;;;1.90;;
21438;SDS011;10880;50.302;18.736;2023-06-14T11:31:05;2.10;;;1.90;;
21438;SDS011;10880;50.302;18.736;2023-06-14T11:33:33;1.83;;;1.73;;
21438;SDS011;10880;50.302;18.736;2023-06-14T11:36:03;2.30;;;2.10;;
21438;SDS011;10880;50.302;18.736;2023-06-14T11:38:34;2.40;;;2.20;;
21438;SDS011;10880;50.302;18.736;2023-06-14T11:41:03;2.40;;;2.20;;
21438;SDS011;10880;50.302;18.736;2023-06-14T11:43:30;2.40;;;2.20;;
21438;SDS011;10880;50.302;18.736;2023-06-14T11:46:00;2.37;;;2.17;;
21438;SDS011;10880;50.302;18.736;2023-06-14T11:48:42;2.40;;;2.20;;
21438;SDS011;10880;50.302;18.736;2023-06-14T11:51:09;2.40;;;2.20;;
21438;SDS011;10880;50.302;18.736;2023-06-14T11:53:36;2.00;;;1.90;;
21438;SDS011;10880;50.302;18.736;2023-06-14T11:56:03;2.40;;;2.20;;
21438;SDS011;10880;50.302;18.736;2023-06-14T11:58:30;2.27;;;2.10;;
21438;SDS011;10880;50.302;18.736;2023-06-14T12:00:57;2.47;;;2.27;;
21438;SDS011;10880;50.302;18.736;2023-06-14T12:03:24;1.93;;;1.80;;
21438;SDS011;10880;50.302;18.736;2023-06-14T12:06:01;2.93;;;1.93;;
21438;SDS011;10880;50.302;18.736;2023-06-14T12:08:37;2.40;;;2.20;;
21438;SDS011;10880;50.302;18.736;2023-06-14T12:11:13;3.17;;;2.87;;
21438;SDS011;10880;50.302;18.736;2023-06-14T12:13:42;2.60;;;2.40;;
21438;SDS011;10880;50.302;18.736;2023-06-14T12:16:10;2.37;;;2.17;;
21438;SDS011;10880;50.302;18.736;2023-06-14T12:18:38;2.60;;;2.40;;
21438;SDS011;10880;50.302;18.736;2023-06-14T12:21:09;2.50;;;2.30;;
21438;SDS011;10880;50.302;18.736;2023-06-14T12:26:06;2.30;;;2.10;;
21438;SDS011;10880;50.302;18.736;2023-06-14T12:28:34;2.20;;;2.10;;
21438;SDS011;10880;50.302;18.736;2023-06-14T12:31:01;2.00;;;1.90;;
21438;SDS011;10880;50.302;18.736;2023-06-14T12:33:29;2.63;;;2.43;;
21438;SDS011;10880;50.302;18.736;2023-06-14T12:35:55;2.70;;;2.37;;
21438;SDS011;10880;50.302;18.736;2023-06-14T12:38:24;2.13;;;2.00;;
21438;SDS011;10880;50.302;18.736;2023-06-14T12:40:50;2.03;;;1.83;;
21438;SDS011;10880;50.302;18.736;2023-06-14T12:43:18;2.37;;;2.17;;
21438;SDS011;10880;50.302;18.736;2023-06-14T12:45:45;2.63;;;2.13;;
21438;SDS011;10880;50.302;18.736;2023-06-14T12:48:12;2.50;;;2.10;;
21438;SDS011;10880;50.302;18.736;2023-06-14T12:50:39;2.03;;;1.83;;
21438;SDS011;10880;50.302;18.736;2023-06-14T12:53:06;2.13;;;1.93;;
21438;SDS011;10880;50.302;18.736;2023-06-14T12:55:33;2.07;;;1.87;;
21438;SDS011;10880;50.302;18.736;2023-06-14T12:57:59;2.30;;;2.10;;
21438;SDS011;10880;50.302;18.736;2023-06-14T13:00:29;2.20;;;2.00;;
21438;SDS011;10880;50.302;18.736;2023-06-14T13:02:56;1.90;;;1.80;;
21438;SDS011;10880;50.302;18.736;2023-06-14T13:05:24;1.80;;;1.70;;
21438;SDS011;10880;50.302;18.736;2023-06-14T13:07:51;1.80;;;1.70;;
21438;SDS011;10880;50.302;18.736;2023-06-14T13:10:19;2.13;;;1.80;;
21438;SDS011;10880;50.302;18.736;2023-06-14T13:12:46;1.70;;;1.60;;
21438;SDS011;10880;50.302;18.736;2023-06-14T13:15:13;2.53;;;1.70;;
21438;SDS011;10880;50.302;18.736;2023-06-14T13:17:40;2.03;;;1.83;;
21438;SDS011;10880;50.302;18.736;2023-06-14T13:20:09;1.70;;;1.60;;
21438;SDS011;10880;50.302;18.736;2023-06-14T13:22:36;2.47;;;1.70;;
21438;SDS011;10880;50.302;18.736;2023-06-14T13:25:05;1.80;;;1.70;;
21438;SDS011;10880;50.302;18.736;2023-06-14T13:27:32;1.60;;;1.50;;
21438;SDS011;10880;50.302;18.736;2023-06-14T13:29:59;1.80;;;1.70;;
21438;SDS011;10880;50.302;18.736;2023-06-14T13:32:26;1.70;;;1.60;;
21438;SDS011;10880;50.302;18.736;2023-06-14T13:34:53;1.60;;;1.50;;
21438;SDS011;10880;50.302;18.736;2023-06-14T13:37:20;1.80;;;1.70;;
21438;SDS011;10880;50.302;18.736;2023-06-14T13:39:47;1.87;;;1.70;;
21438;SDS011;10880;50.302;18.736;2023-06-14T13:42:14;1.60;;;1.50;;
21438;SDS011;10880;50.302;18.736;2023-06-14T13:44:40;1.90;;;1.80;;
21438;SDS011;10880;50.302;18.736;2023-06-14T13:47:07;2.00;;;1.90;;
21438;SDS011;10880;50.302;18.736;2023-06-14T13:49:34;1.60;;;1.50;;
21438;SDS011;10880;50.302;18.736;2023-06-14T13:52:04;1.60;;;1.50;;
21438;SDS011;10880;50.302;18.736;2023-06-14T13:54:33;1.70;;;1.60;;
21438;SDS011;10880;50.302;18.736;2023-06-14T13:57:01;1.37;;;1.37;;
21438;SDS011;10880;50.302;18.736;2023-06-14T13:59:30;1.60;;;1.50;;
21438;SDS011;10880;50.302;18.736;2023-06-14T14:01:57;1.60;;;1.50;;
21438;SDS011;10880;50.302;18.736;2023-06-14T14:04:24;1.50;;;1.40;;
21438;SDS011;10880;50.302;18.736;2023-06-14T14:06:52;1.70;;;1.60;;
21438;SDS011;10880;50.302;18.736;2023-06-14T14:09:21;1.50;;;1.40;;
21438;SDS011;10880;50.302;18.736;2023-06-14T14:11:52;1.73;;;1.63;;
21438;SDS011;10880;50.302;18.736;2023-06-14T14:14:19;1.60;;;1.50;;
21438;SDS011;10880;50.302;18.736;2023-06-14T14:16:47;1.70;;;1.60;;
21438;SDS011;10880;50.302;18.736;2023-06-14T14:19:18;1.53;;;1.43;;
21438;SDS011;10880;50.302;18.736;2023-06-14T14:21:46;1.60;;;1.50;;
21438;SDS011;10880;50.302;18.736;2023-06-14T14:24:14;1.60;;;1.50;;
21438;SDS011;10880;50.302;18.736;2023-06-14T14:26:42;1.57;;;1.47;;
21438;SDS011;10880;50.302;18.736;2023-06-14T14:29:09;1.63;;;1.53;;
21438;SDS011;10880;50.302;18.736;2023-06-14T14:31:45;1.70;;;1.60;;
21438;SDS011;10880;50.302;18.736;2023-06-14T14:34:12;1.60;;;1.50;;
21438;SDS011;10880;50.302;18.736;2023-06-14T14:36:40;1.60;;;1.50;;
21438;SDS011;10880;50.302;18.736;2023-06-14T14:39:08;1.53;;;1.43;;
21438;SDS011;10880;50.302;18.736;2023-06-14T14:41:35;1.60;;;1.50;;
21438;SDS011;10880;50.302;18.736;2023-06-14T14:44:04;1.60;;;1.50;;
21438;SDS011;10880;50.302;18.736;2023-06-14T14:46:32;1.50;;;1.40;;
21438;SDS011;10880;50.302;18.736;2023-06-14T14:48:59;1.70;;;1.60;;
21438;SDS011;10880;50.302;18.736;2023-06-14T14:51:27;1.70;;;1.60;;
21438;SDS011;10880;50.302;18.736;2023-06-14T14:53:54;1.70;;;1.60;;
21438;SDS011;10880;50.302;18.736;2023-06-14T14:56:22;1.57;;;1.47;;
21438;SDS011;10880;50.302;18.736;2023-06-14T14:58:49;1.40;;;1.30;;
21438;SDS011;10880;50.302;18.736;2023-06-14T15:01:17;1.50;;;1.40;;